FDX1205 LDDU-EDDF
Flight info
| Callsign | FDX1205 |
|---|---|
| Flight time | N/A |
| Altitude | 36000 |
| Route | AMUGO DCT UVODI DCT ZDA DCT MONFA DCT SOTOV DCT NIKWU Q163 OLASO/N0483F320 Q163 HAFUN/N0447F240 Q163 ETASA T163 SPESA SPESA4C |
| Aircraft | MD11/H-SDE1E2E3FGHIJ2J3J4J5M1RWXY/LB1D1 |
Departure
| Time | 2026-05-01 12:57 |
|---|---|
| Airport | Dubrovnik Ruđer Bošković Airport (LDDU) |
Arrival
| Time | N/A |
|---|---|
| Airport | Frankfurt Main Airport (EDDF) |
| Time | Latitude | Longitude | Altitude | Speed | Heading |
|---|---|---|---|---|---|
| 2026-05-01 12:29 | 42.56234 | 18.25950 | 544 ft | 0 kts | 208° |
| 2026-05-01 12:46 | 42.56246 | 18.25959 | 541 ft | 2 kts | 218° |
| 2026-05-01 12:46 | 42.56259 | 18.25973 | 546 ft | 2 kts | 228° |
| 2026-05-01 12:47 | 42.56269 | 18.25991 | 548 ft | 2 kts | 256° |
| 2026-05-01 12:47 | 42.56270 | 18.26013 | 553 ft | 2 kts | 289° |
| 2026-05-01 12:47 | 42.56265 | 18.26029 | 548 ft | 1 kts | 299° |
| 2026-05-01 12:47 | 42.56264 | 18.26031 | 548 ft | 0 kts | 299° |
| 2026-05-01 12:52 | 42.56264 | 18.26030 | 548 ft | 2 kts | 299° |
| 2026-05-01 12:52 | 42.56284 | 18.25980 | 545 ft | 10 kts | 298° |
| 2026-05-01 12:53 | 42.56379 | 18.25741 | 548 ft | 19 kts | 298° |
| 2026-05-01 12:53 | 42.56448 | 18.25570 | 541 ft | 23 kts | 299° |
| 2026-05-01 12:53 | 42.56530 | 18.25366 | 541 ft | 27 kts | 298° |
| 2026-05-01 12:54 | 42.56621 | 18.25135 | 541 ft | 28 kts | 298° |
| 2026-05-01 12:54 | 42.56758 | 18.24788 | 541 ft | 15 kts | 298° |
| 2026-05-01 12:54 | 42.56783 | 18.24733 | 541 ft | 0 kts | 307° |
| 2026-05-01 12:55 | 42.56791 | 18.24721 | 543 ft | 4 kts | 311° |
| 2026-05-01 12:55 | 42.56826 | 18.24686 | 541 ft | 8 kts | 333° |
| 2026-05-01 12:55 | 42.56896 | 18.24671 | 541 ft | 12 kts | 7° |
| 2026-05-01 12:56 | 42.56945 | 18.24751 | 541 ft | 11 kts | 85° |
| 2026-05-01 12:56 | 42.56932 | 18.24815 | 540 ft | 0 kts | 111° |
| 2026-05-01 12:57 | 42.56804 | 18.25142 | 542 ft | 82 kts | 118° |
| 2026-05-01 12:57 | 42.55840 | 18.27583 | 691 ft | 188 kts | 115° |
| 2026-05-01 12:57 | 42.55251 | 18.29171 | 1613 ft | 181 kts | 112° |
| 2026-05-01 12:58 | 42.54630 | 18.30564 | 2785 ft | 176 kts | 118° |
| 2026-05-01 12:58 | 42.53951 | 18.31963 | 3626 ft | 182 kts | 119° |
| 2026-05-01 12:58 | 42.53259 | 18.33412 | 4467 ft | 183 kts | 118° |
| 2026-05-01 12:59 | 42.51634 | 18.36110 | 5937 ft | 196 kts | 153° |
| 2026-05-01 12:59 | 42.50272 | 18.36218 | 6674 ft | 205 kts | 194° |
| 2026-05-01 12:59 | 42.47762 | 18.34168 | 7871 ft | 214 kts | 212° |
| 2026-05-01 13:00 | 42.45185 | 18.32090 | 9155 ft | 217 kts | 206° |
| 2026-05-01 13:00 | 42.43838 | 18.31135 | 9782 ft | 219 kts | 205° |
| 2026-05-01 13:01 | 42.41096 | 18.29250 | 10860 ft | 224 kts | 213° |
| 2026-05-01 13:01 | 42.39947 | 18.27811 | 11371 ft | 227 kts | 236° |
| 2026-05-01 13:01 | 42.39411 | 18.23596 | 11799 ft | 244 kts | 288° |
| 2026-05-01 13:02 | 42.39885 | 18.21343 | 11949 ft | 260 kts | 292° |
| 2026-05-01 13:07 | 42.60985 | 17.55177 | 22383 ft | 412 kts | 323° |
| 2026-05-01 13:07 | 42.63188 | 17.52639 | 22930 ft | 416 kts | 321° |
| 2026-05-01 13:07 | 42.65333 | 17.49958 | 23463 ft | 420 kts | 319° |
| 2026-05-01 13:08 | 42.67443 | 17.47175 | 23965 ft | 423 kts | 317° |
| 2026-05-01 13:08 | 42.69535 | 17.44329 | 24388 ft | 428 kts | 317° |
| 2026-05-01 13:08 | 42.71631 | 17.41435 | 24842 ft | 431 kts | 317° |
| 2026-05-01 13:08 | 42.73733 | 17.38512 | 25319 ft | 434 kts | 317° |
| 2026-05-01 13:09 | 42.75849 | 17.35565 | 25799 ft | 437 kts | 317° |
| 2026-05-01 13:09 | 42.77980 | 17.32597 | 26274 ft | 440 kts | 317° |
| 2026-05-01 13:09 | 42.80107 | 17.29634 | 26744 ft | 443 kts | 317° |
| 2026-05-01 13:09 | 42.82266 | 17.26625 | 27220 ft | 445 kts | 317° |
| 2026-05-01 13:10 | 42.84445 | 17.23588 | 27678 ft | 448 kts | 317° |
| 2026-05-01 13:10 | 42.86638 | 17.20528 | 28133 ft | 451 kts | 318° |
| 2026-05-01 13:10 | 42.88833 | 17.17461 | 28592 ft | 454 kts | 318° |
| 2026-05-01 13:10 | 42.91044 | 17.14369 | 29037 ft | 457 kts | 318° |
| 2026-05-01 13:11 | 42.93267 | 17.11258 | 29456 ft | 460 kts | 318° |
| 2026-05-01 13:11 | 42.95525 | 17.08095 | 29739 ft | 467 kts | 318° |
| 2026-05-01 13:11 | 42.97797 | 17.04907 | 30130 ft | 470 kts | 318° |
| 2026-05-01 13:11 | 43.00086 | 17.01691 | 30479 ft | 472 kts | 318° |
| 2026-05-01 13:12 | 43.02380 | 16.98464 | 30801 ft | 474 kts | 318° |
| 2026-05-01 13:12 | 43.04660 | 16.95253 | 31152 ft | 475 kts | 318° |
| 2026-05-01 13:12 | 43.06962 | 16.92005 | 31563 ft | 474 kts | 318° |
| 2026-05-01 13:12 | 43.09252 | 16.88770 | 31985 ft | 473 kts | 317° |
| 2026-05-01 13:13 | 43.11531 | 16.85529 | 32406 ft | 472 kts | 317° |
| 2026-05-01 13:13 | 43.13800 | 16.82291 | 32795 ft | 471 kts | 317° |
| 2026-05-01 13:13 | 43.16060 | 16.79068 | 33188 ft | 469 kts | 317° |
| 2026-05-01 13:13 | 43.18327 | 16.75841 | 33558 ft | 469 kts | 317° |
| 2026-05-01 13:14 | 43.20601 | 16.72608 | 33728 ft | 472 kts | 317° |
| 2026-05-01 13:14 | 43.22883 | 16.69365 | 34012 ft | 472 kts | 317° |
| 2026-05-01 13:14 | 43.25160 | 16.66125 | 34415 ft | 469 kts | 317° |
| 2026-05-01 13:14 | 43.27403 | 16.62931 | 34684 ft | 469 kts | 317° |
| 2026-05-01 13:15 | 43.29664 | 16.59708 | 34960 ft | 468 kts | 317° |
| 2026-05-01 13:15 | 43.31916 | 16.56494 | 35220 ft | 467 kts | 317° |
| 2026-05-01 13:15 | 43.34172 | 16.53270 | 35471 ft | 467 kts | 317° |
| 2026-05-01 13:15 | 43.36422 | 16.50051 | 35717 ft | 466 kts | 317° |
| 2026-05-01 13:16 | 43.38661 | 16.46844 | 35962 ft | 466 kts | 317° |
| 2026-05-01 13:16 | 43.40903 | 16.43629 | 36146 ft | 466 kts | 317° |
| 2026-05-01 13:16 | 43.43156 | 16.40397 | 36185 ft | 467 kts | 317° |
| 2026-05-01 13:17 | 43.51428 | 16.28489 | 36209 ft | 471 kts | 317° |
| 2026-05-01 13:18 | 43.58958 | 16.17605 | 36213 ft | 471 kts | 317° |
| 2026-05-01 13:18 | 43.63450 | 16.11093 | 36225 ft | 471 kts | 317° |
| 2026-05-01 13:19 | 43.67965 | 16.04523 | 36229 ft | 471 kts | 316° |
| 2026-05-01 13:20 | 43.74698 | 15.94636 | 36238 ft | 471 kts | 317° |
| 2026-05-01 13:20 | 43.79198 | 15.88044 | 36247 ft | 471 kts | 317° |
| 2026-05-01 13:21 | 43.85195 | 15.79254 | 36244 ft | 471 kts | 317° |
| 2026-05-01 13:21 | 43.89691 | 15.72646 | 36249 ft | 471 kts | 317° |
| 2026-05-01 13:22 | 43.94198 | 15.66007 | 36256 ft | 473 kts | 317° |
| 2026-05-01 13:22 | 43.98705 | 15.59351 | 36258 ft | 473 kts | 318° |
| 2026-05-01 13:23 | 44.03180 | 15.52726 | 36264 ft | 473 kts | 318° |
| 2026-05-01 13:23 | 44.07677 | 15.46053 | 36265 ft | 473 kts | 318° |
| 2026-05-01 13:24 | 44.12177 | 15.39361 | 36265 ft | 473 kts | 318° |
| 2026-05-01 13:25 | 44.18882 | 15.29355 | 36264 ft | 471 kts | 319° |
| 2026-05-01 13:25 | 44.23344 | 15.22679 | 36268 ft | 470 kts | 319° |
| 2026-05-01 13:26 | 44.27797 | 15.15955 | 36276 ft | 471 kts | 319° |
| 2026-05-01 13:26 | 44.32239 | 15.09233 | 36283 ft | 471 kts | 319° |
| 2026-05-01 13:27 | 44.36653 | 15.02569 | 36285 ft | 470 kts | 319° |
| 2026-05-01 13:27 | 44.43313 | 14.92501 | 36292 ft | 469 kts | 320° |
| 2026-05-01 13:28 | 44.49966 | 14.82410 | 36297 ft | 469 kts | 319° |
| 2026-05-01 13:29 | 44.58781 | 14.68982 | 36296 ft | 469 kts | 319° |
| 2026-05-01 13:31 | 44.72029 | 14.48677 | 36285 ft | 469 kts | 320° |
| 2026-05-01 13:32 | 44.82993 | 14.31726 | 36306 ft | 469 kts | 319° |
| 2026-05-01 13:33 | 44.93922 | 14.14684 | 36320 ft | 466 kts | 319° |
| 2026-05-01 13:34 | 45.02604 | 14.01135 | 36323 ft | 466 kts | 319° |
| 2026-05-01 13:35 | 45.09129 | 13.90907 | 36303 ft | 466 kts | 319° |
| 2026-05-01 13:36 | 45.15632 | 13.80675 | 36317 ft | 465 kts | 318° |
| 2026-05-01 13:36 | 45.22093 | 13.70471 | 36321 ft | 465 kts | 318° |
| 2026-05-01 13:37 | 45.26412 | 13.63628 | 36323 ft | 465 kts | 318° |
| 2026-05-01 13:37 | 45.30732 | 13.56769 | 36319 ft | 465 kts | 318° |
| 2026-05-01 13:38 | 45.37197 | 13.46456 | 36318 ft | 465 kts | 317° |
| 2026-05-01 13:39 | 45.41479 | 13.39549 | 36320 ft | 466 kts | 317° |
| 2026-05-01 13:39 | 45.45756 | 13.32667 | 36322 ft | 466 kts | 317° |
| 2026-05-01 13:40 | 45.50140 | 13.25890 | 36322 ft | 462 kts | 320° |
| 2026-05-01 13:40 | 45.54719 | 13.19547 | 36333 ft | 461 kts | 322° |
| 2026-05-01 13:41 | 45.59373 | 13.13226 | 36335 ft | 461 kts | 322° |
| 2026-05-01 13:41 | 45.64003 | 13.06884 | 36337 ft | 462 kts | 322° |
| 2026-05-01 13:42 | 45.68631 | 13.00499 | 36308 ft | 462 kts | 321° |
| 2026-05-01 13:42 | 45.73225 | 12.94138 | 36334 ft | 462 kts | 321° |
| 2026-05-01 13:43 | 45.77851 | 12.87716 | 36337 ft | 462 kts | 321° |
| 2026-05-01 13:43 | 45.82464 | 12.81298 | 36338 ft | 462 kts | 321° |
| 2026-05-01 13:44 | 45.87086 | 12.74852 | 36333 ft | 462 kts | 321° |
| 2026-05-01 13:44 | 45.91670 | 12.68445 | 36327 ft | 462 kts | 320° |
| 2026-05-01 13:45 | 45.96277 | 12.61988 | 36330 ft | 463 kts | 320° |
| 2026-05-01 13:45 | 46.00887 | 12.55512 | 36333 ft | 463 kts | 320° |
| 2026-05-01 13:46 | 46.05488 | 12.49032 | 36330 ft | 462 kts | 320° |
| 2026-05-01 13:46 | 46.10049 | 12.42564 | 36328 ft | 463 kts | 320° |
| 2026-05-01 13:47 | 46.14582 | 12.36096 | 36309 ft | 462 kts | 319° |
| 2026-05-01 13:47 | 46.19161 | 12.29579 | 36314 ft | 461 kts | 319° |
| 2026-05-01 13:48 | 46.23711 | 12.23107 | 36318 ft | 462 kts | 319° |
| 2026-05-01 13:48 | 46.28290 | 12.16581 | 36314 ft | 463 kts | 319° |
| 2026-05-01 13:49 | 46.32864 | 12.10042 | 36311 ft | 462 kts | 319° |
| 2026-05-01 13:49 | 46.37437 | 12.03491 | 36294 ft | 462 kts | 319° |
| 2026-05-01 13:50 | 46.42014 | 11.96916 | 36301 ft | 463 kts | 319° |
| 2026-05-01 13:50 | 46.46582 | 11.90337 | 36292 ft | 463 kts | 319° |
| 2026-05-01 13:51 | 46.51144 | 11.83751 | 36278 ft | 463 kts | 319° |
| 2026-05-01 13:51 | 46.55677 | 11.77191 | 36275 ft | 462 kts | 319° |
| 2026-05-01 13:52 | 46.60235 | 11.70578 | 36270 ft | 463 kts | 319° |
| 2026-05-01 13:52 | 46.64798 | 11.63941 | 36266 ft | 464 kts | 319° |
| 2026-05-01 13:53 | 46.69350 | 11.57269 | 36271 ft | 464 kts | 318° |
| 2026-05-01 13:53 | 46.76163 | 11.47234 | 36266 ft | 463 kts | 318° |
| 2026-05-01 13:54 | 46.80688 | 11.40585 | 36266 ft | 464 kts | 318° |
| 2026-05-01 13:54 | 46.85243 | 11.33885 | 36276 ft | 464 kts | 318° |
| 2026-05-01 13:55 | 46.89789 | 11.27180 | 36274 ft | 464 kts | 318° |
| 2026-05-01 13:55 | 46.94595 | 11.20944 | 36286 ft | 459 kts | 329° |
| 2026-05-01 13:56 | 47.00058 | 11.16277 | 36281 ft | 457 kts | 334° |
| 2026-05-01 13:56 | 47.05674 | 11.11895 | 36278 ft | 457 kts | 334° |
| 2026-05-01 13:57 | 47.10319 | 11.08175 | 36287 ft | 457 kts | 333° |
| 2026-05-01 13:57 | 47.16814 | 11.02847 | 36286 ft | 458 kts | 333° |
| 2026-05-01 13:58 | 47.22368 | 10.98251 | 36287 ft | 457 kts | 333° |
| 2026-05-01 13:58 | 47.27917 | 10.93649 | 36280 ft | 457 kts | 333° |
| 2026-05-01 13:59 | 47.33462 | 10.89042 | 36289 ft | 458 kts | 333° |
| 2026-05-01 13:59 | 47.38988 | 10.84440 | 36286 ft | 458 kts | 333° |
| 2026-05-01 14:00 | 47.44539 | 10.79806 | 36313 ft | 459 kts | 333° |
| 2026-05-01 14:00 | 47.50101 | 10.75152 | 36313 ft | 458 kts | 333° |
| 2026-05-01 14:01 | 47.55659 | 10.70489 | 36305 ft | 459 kts | 332° |
| 2026-05-01 14:01 | 47.61163 | 10.65861 | 36300 ft | 459 kts | 332° |
| 2026-05-01 14:02 | 47.66730 | 10.61159 | 36305 ft | 459 kts | 332° |
| 2026-05-01 14:02 | 47.72246 | 10.56462 | 36307 ft | 459 kts | 332° |
| 2026-05-01 14:03 | 47.77794 | 10.51744 | 36319 ft | 460 kts | 332° |
| 2026-05-01 14:03 | 47.83316 | 10.47051 | 36317 ft | 460 kts | 332° |
| 2026-05-01 14:04 | 47.88913 | 10.42414 | 36317 ft | 459 kts | 336° |
| 2026-05-01 14:04 | 47.93750 | 10.39252 | 36315 ft | 458 kts | 340° |
| 2026-05-01 14:05 | 48.00689 | 10.35190 | 36308 ft | 458 kts | 340° |
| 2026-05-01 14:05 | 48.06595 | 10.31709 | 36305 ft | 458 kts | 340° |
| 2026-05-01 14:06 | 48.12515 | 10.28159 | 36294 ft | 458 kts | 340° |
| 2026-05-01 14:06 | 48.18431 | 10.24586 | 36297 ft | 459 kts | 339° |
| 2026-05-01 14:07 | 48.23136 | 10.20825 | 36313 ft | 461 kts | 326° |
| 2026-05-01 14:08 | 48.31417 | 10.10669 | 36318 ft | 462 kts | 321° |
| 2026-05-01 14:08 | 48.35548 | 10.05474 | 36319 ft | 462 kts | 322° |
| 2026-05-01 14:09 | 48.40527 | 9.99341 | 36318 ft | 462 kts | 322° |
| 2026-05-01 14:09 | 48.45486 | 9.93272 | 36309 ft | 462 kts | 322° |
| 2026-05-01 14:10 | 48.50478 | 9.87154 | 36309 ft | 462 kts | 322° |
| 2026-05-01 14:10 | 48.55443 | 9.81048 | 36307 ft | 461 kts | 322° |
| 2026-05-01 14:11 | 48.60390 | 9.74905 | 36298 ft | 459 kts | 321° |
| 2026-05-01 14:11 | 48.64180 | 9.69965 | 36297 ft | 461 kts | 320° |
| 2026-05-01 14:12 | 48.68934 | 9.63653 | 36299 ft | 460 kts | 320° |
| 2026-05-01 14:12 | 48.73773 | 9.57229 | 36299 ft | 463 kts | 320° |
| 2026-05-01 14:13 | 48.78616 | 9.50800 | 36300 ft | 462 kts | 320° |
| 2026-05-01 14:13 | 48.83422 | 9.44412 | 36297 ft | 463 kts | 320° |
| 2026-05-01 14:14 | 48.88248 | 9.37982 | 36296 ft | 461 kts | 320° |
| 2026-05-01 14:14 | 48.93395 | 9.32225 | 36284 ft | 460 kts | 331° |
| 2026-05-01 14:15 | 48.99113 | 9.27806 | 36292 ft | 462 kts | 335° |
| 2026-05-01 14:15 | 49.04877 | 9.23593 | 36292 ft | 460 kts | 334° |
| 2026-05-01 14:16 | 49.10639 | 9.19257 | 36291 ft | 461 kts | 334° |
| 2026-05-01 14:16 | 49.16442 | 9.14979 | 36299 ft | 461 kts | 339° |
| 2026-05-01 14:17 | 49.22613 | 9.12818 | 36299 ft | 458 kts | 358° |
| 2026-05-01 14:17 | 49.28982 | 9.13554 | 36301 ft | 459 kts | 7° |
| 2026-05-01 14:18 | 49.35343 | 9.14926 | 36304 ft | 461 kts | 6° |
| 2026-05-01 14:18 | 49.40634 | 9.15866 | 36304 ft | 462 kts | 5° |
| 2026-05-01 14:19 | 49.48061 | 9.16976 | 36310 ft | 461 kts | 5° |
| 2026-05-01 14:19 | 49.51259 | 9.17431 | 36203 ft | 461 kts | 5° |
| 2026-05-01 14:19 | 49.54436 | 9.17882 | 35769 ft | 458 kts | 5° |
| 2026-05-01 14:20 | 49.57628 | 9.18349 | 35342 ft | 459 kts | 6° |
| 2026-05-01 14:20 | 49.63878 | 9.20319 | 34524 ft | 460 kts | 19° |
| 2026-05-01 14:20 | 49.66799 | 9.22335 | 34104 ft | 461 kts | 29° |
| 2026-05-01 14:21 | 49.69444 | 9.25055 | 33641 ft | 463 kts | 38° |
| 2026-05-01 14:21 | 49.71978 | 9.28161 | 33190 ft | 464 kts | 33° |
| 2026-05-01 14:21 | 49.74780 | 9.30612 | 32712 ft | 465 kts | 22° |
| 2026-05-01 14:22 | 49.80964 | 9.33384 | 31748 ft | 467 kts | 12° |
| 2026-05-01 14:22 | 49.84172 | 9.34355 | 31272 ft | 469 kts | 8° |
| 2026-05-01 14:22 | 49.87434 | 9.34757 | 30803 ft | 470 kts | 360° |
| 2026-05-01 14:22 | 49.90714 | 9.34463 | 30343 ft | 473 kts | 354° |
| 2026-05-01 14:23 | 49.93984 | 9.33836 | 29794 ft | 475 kts | 353° |
| 2026-05-01 14:23 | 49.97268 | 9.33104 | 29262 ft | 476 kts | 353° |
| 2026-05-01 14:23 | 50.00535 | 9.32643 | 28744 ft | 479 kts | 359° |
| 2026-05-01 14:23 | 50.03873 | 9.32696 | 28224 ft | 479 kts | 4° |
| 2026-05-01 14:24 | 50.07206 | 9.33043 | 27730 ft | 481 kts | 5° |
| 2026-05-01 14:24 | 50.10547 | 9.33288 | 27231 ft | 475 kts | 360° |
| 2026-05-01 14:24 | 50.13772 | 9.32705 | 26737 ft | 459 kts | 347° |
| 2026-05-01 14:24 | 50.16721 | 9.31040 | 26251 ft | 445 kts | 334° |
| 2026-05-01 14:25 | 50.19233 | 9.28345 | 25772 ft | 432 kts | 318° |
| 2026-05-01 14:25 | 50.21203 | 9.24889 | 25302 ft | 421 kts | 306° |
| 2026-05-01 14:25 | 50.22621 | 9.21027 | 24864 ft | 411 kts | 294° |
| 2026-05-01 14:25 | 50.23537 | 9.16841 | 24385 ft | 403 kts | 283° |
| 2026-05-01 14:26 | 50.23923 | 9.12566 | 23902 ft | 389 kts | 272° |
| 2026-05-01 14:26 | 50.23226 | 9.04636 | 22745 ft | 354 kts | 250° |
| 2026-05-01 14:26 | 50.22326 | 9.01163 | 22177 ft | 339 kts | 243° |
| 2026-05-01 14:27 | 50.21318 | 8.97913 | 21652 ft | 326 kts | 242° |
| 2026-05-01 14:27 | 50.20320 | 8.94805 | 21101 ft | 316 kts | 241° |
| 2026-05-01 14:27 | 50.19346 | 8.91757 | 20580 ft | 312 kts | 242° |
| 2026-05-01 14:28 | 50.17465 | 8.85766 | 19551 ft | 306 kts | 242° |
| 2026-05-01 14:28 | 50.16542 | 8.82790 | 19046 ft | 303 kts | 243° |
| 2026-05-01 14:28 | 50.15636 | 8.79852 | 18547 ft | 299 kts | 242° |
| 2026-05-01 14:28 | 50.14737 | 8.76937 | 17979 ft | 297 kts | 242° |
| 2026-05-01 14:29 | 50.13842 | 8.74026 | 17432 ft | 296 kts | 241° |
| 2026-05-01 14:29 | 50.12959 | 8.71163 | 16889 ft | 294 kts | 242° |
| 2026-05-01 14:30 | 50.10334 | 8.62647 | 15320 ft | 288 kts | 241° |
| 2026-05-01 14:30 | 50.09471 | 8.59851 | 14813 ft | 286 kts | 242° |
| 2026-05-01 14:30 | 50.08606 | 8.57066 | 14322 ft | 284 kts | 241° |
| 2026-05-01 14:31 | 50.06910 | 8.51600 | 13251 ft | 280 kts | 242° |
| 2026-05-01 14:31 | 50.06067 | 8.48890 | 12710 ft | 276 kts | 242° |
| 2026-05-01 14:31 | 50.05237 | 8.46204 | 12183 ft | 273 kts | 241° |
| 2026-05-01 14:31 | 50.04419 | 8.43556 | 11676 ft | 270 kts | 242° |
| 2026-05-01 14:32 | 50.03779 | 8.40819 | 11166 ft | 269 kts | 251° |
| 2026-05-01 14:32 | 50.03320 | 8.38014 | 10655 ft | 266 kts | 253° |
| 2026-05-01 14:32 | 50.02874 | 8.35180 | 10156 ft | 271 kts | 253° |
| 2026-05-01 14:32 | 50.02418 | 8.32307 | 9611 ft | 276 kts | 253° |
| 2026-05-01 14:33 | 50.01945 | 8.29386 | 9076 ft | 281 kts | 252° |
| 2026-05-01 14:33 | 50.01472 | 8.26425 | 8648 ft | 280 kts | 253° |
| 2026-05-01 14:33 | 50.01019 | 8.23553 | 8398 ft | 274 kts | 253° |
| 2026-05-01 14:33 | 50.00938 | 8.23033 | 8350 ft | 272 kts | 253° |
| 2026-05-01 14:34 | 50.00516 | 8.20276 | 8115 ft | 266 kts | 253° |
| 2026-05-01 14:34 | 50.00094 | 8.17506 | 7863 ft | 259 kts | 253° |
| 2026-05-01 14:34 | 49.99687 | 8.14810 | 7612 ft | 254 kts | 253° |
| 2026-05-01 14:34 | 49.99284 | 8.12167 | 7356 ft | 248 kts | 253° |
| 2026-05-01 14:35 | 49.98887 | 8.09570 | 7114 ft | 245 kts | 253° |
| 2026-05-01 14:35 | 49.98508 | 8.07028 | 6896 ft | 245 kts | 253° |
| 2026-05-01 14:35 | 49.98129 | 8.04454 | 6647 ft | 244 kts | 253° |
| 2026-05-01 14:35 | 49.97752 | 8.01887 | 6376 ft | 243 kts | 253° |
| 2026-05-01 14:36 | 49.97173 | 7.99489 | 6106 ft | 236 kts | 231° |
| 2026-05-01 14:36 | 49.95960 | 7.97904 | 5843 ft | 226 kts | 199° |
| 2026-05-01 14:36 | 49.94446 | 7.97606 | 5589 ft | 219 kts | 168° |
| 2026-05-01 14:36 | 49.93101 | 7.98635 | 5328 ft | 218 kts | 138° |
| 2026-05-01 14:37 | 49.92094 | 8.00409 | 5109 ft | 223 kts | 123° |
| 2026-05-01 14:37 | 49.91533 | 8.02665 | 4874 ft | 224 kts | 107° |
| 2026-05-01 14:37 | 49.91317 | 8.05050 | 4571 ft | 228 kts | 86° |
| 2026-05-01 14:37 | 49.91745 | 8.07379 | 4359 ft | 229 kts | 74° |
| 2026-05-01 14:38 | 49.92300 | 8.09708 | 4112 ft | 230 kts | 73° |
| 2026-05-01 14:38 | 49.92850 | 8.12009 | 3969 ft | 224 kts | 74° |
| 2026-05-01 14:38 | 49.93392 | 8.14283 | 3956 ft | 226 kts | 74° |
| 2026-05-01 14:38 | 49.93938 | 8.16573 | 3940 ft | 225 kts | 73° |